TimeMST,TemperatureF,Dew PointF,Humidity,Sea Level PressureIn,VisibilityMPH,Wind Direction,Wind SpeedMPH,Gust SpeedMPH,PrecipitationIn,Events,Conditions,WindDirDegrees,DateUTC
3:15 AM,66.2,60.8,83,29.98,10.0,North,-9999.0,-,N/A,,Overcast,0,2012-11-10 10:15:00
3:35 AM,64.4,59.0,83,29.98,10.0,North,-9999.0,-,N/A,,Overcast,0,2012-11-10 10:35:00
3:55 AM,64.4,59.0,83,29.98,10.0,North,-9999.0,-,N/A,,Mostly Cloudy,0,2012-11-10 10:55:00
4:15 AM,64.4,59.0,83,29.98,10.0,North,-9999.0,-,N/A,,Mostly Cloudy,0,2012-11-10 11:15:00
4:55 AM,64.4,59.0,83,29.97,10.0,North,-9999.0,-,N/A,,Scattered Clouds,0,2012-11-10 11:55:00
5:15 AM,64.4,59.0,83,29.98,10.0,North,-9999.0,-,N/A,,Scattered Clouds,0,2012-11-10 12:15:00
5:35 AM,64.4,59.0,83,29.98,10.0,North,-9999.0,-,N/A,,Scattered Clouds,0,2012-11-10 12:35:00
5:55 AM,64.4,59.0,83,29.98,10.0,North,-9999.0,-,N/A,,Scattered Clouds,0,2012-11-10 12:55:00
6:15 AM,64.4,59.0,83,29.98,10.0,North,-9999.0,-,N/A,,Scattered Clouds,0,2012-11-10 13:15:00
6:35 AM,64.4,59.0,83,29.99,10.0,North,-9999.0,-,N/A,,Scattered Clouds,0,2012-11-10 13:35:00
6:55 AM,64.4,59.0,83,29.99,10.0,North,-9999.0,-,N/A,,Mostly Cloudy,0,2012-11-10 13:55:00
7:15 AM,68.0,59.0,73,30.00,10.0,North,-9999.0,-,N/A,,Scattered Clouds,0,2012-11-10 14:15:00
7:35 AM,68.0,59.0,73,30.00,10.0,North,-9999.0,-,N/A,,Mostly Cloudy,0,2012-11-10 14:35:00
7:55 AM,69.8,60.8,73,30.00,10.0,North,-9999.0,-,N/A,,Mostly Cloudy,0,2012-11-10 14:55:00
8:15 AM,69.8,60.8,73,30.01,10.0,North,-9999.0,-,N/A,,Overcast,0,2012-11-10 15:15:00
8:35 AM,69.8,59.0,68,30.01,10.0,North,-9999.0,-,N/A,,Overcast,0,2012-11-10 15:35:00
8:55 AM,71.6,59.0,64,30.00,10.0,North,-9999.0,-,N/A,,Overcast,0,2012-11-10 15:55:00
9:15 AM,71.6,59.0,64,30.00,10.0,North,-9999.0,-,N/A,,Overcast,0,2012-11-10 16:15:00
9:35 AM,71.6,59.0,64,30.00,10.0,North,-9999.0,-,N/A,,Overcast,0,2012-11-10 16:35:00
9:55 AM,73.4,59.0,61,29.99,10.0,North,-9999.0,-,N/A,,Overcast,0,2012-11-10 16:55:00
10:15 AM,77.0,59.0,54,29.98,10.0,North,-9999.0,-,N/A,,Overcast,0,2012-11-10 17:15:00
10:35 AM,77.0,59.0,54,29.98,10.0,North,-9999.0,-,N/A,,Scattered Clouds,0,2012-11-10 17:35:00
10:55 AM,77.0,57.2,50,29.97,10.0,North,-9999.0,-,N/A,,Scattered Clouds,0,2012-11-10 17:55:00
11:15 AM,75.2,55.4,50,29.96,10.0,North,-9999.0,-,N/A,,Mostly Cloudy,0,2012-11-10 18:15:00
11:35 AM,77.0,57.2,50,29.95,10.0,North,-9999.0,-,N/A,,Scattered Clouds,0,2012-11-10 18:35:00
11:55 AM,77.0,57.2,50,29.93,10.0,North,-9999.0,-,N/A,,Scattered Clouds,0,2012-11-10 18:55:00
12:15 PM,78.8,55.4,44,29.91,10.0,North,-9999.0,-,N/A,,Clear,0,2012-11-10 19:15:00
12:35 PM,78.8,55.4,44,29.91,10.0,North,-9999.0,-,N/A,,Clear,0,2012-11-10 19:35:00
12:55 PM,78.8,55.4,44,29.90,10.0,North,-9999.0,-,N/A,,Clear,0,2012-11-10 19:55:00
1:15 PM,78.8,55.4,44,29.89,10.0,North,-9999.0,-,N/A,,Clear,0,2012-11-10 20:15:00
1:35 PM,78.8,53.6,42,29.88,10.0,North,-9999.0,-,N/A,,Clear,0,2012-11-10 20:35:00
1:55 PM,78.8,53.6,42,29.87,10.0,North,-9999.0,-,N/A,,Clear,0,2012-11-10 20:55:00
2:15 PM,78.8,53.6,42,29.87,10.0,North,-9999.0,-,N/A,,Clear,0,2012-11-10 21:15:00
2:35 PM,78.8,55.4,44,29.87,10.0,North,-9999.0,-,N/A,,Clear,0,2012-11-10 21:35:00
2:55 PM,78.8,53.6,42,29.87,10.0,North,-9999.0,-,N/A,,Clear,0,2012-11-10 21:55:00
3:15 PM,78.8,53.6,42,29.85,10.0,North,-9999.0,-,N/A,,Clear,0,2012-11-10 22:15:00
3:35 PM,78.8,53.6,42,29.86,10.0,North,-9999.0,-,N/A,,Clear,0,2012-11-10 22:35:00
3:55 PM,77.0,53.6,44,29.85,10.0,North,-9999.0,-,N/A,,Clear,0,2012-11-10 22:55:00
4:15 PM,77.0,53.6,44,29.85,10.0,North,-9999.0,-,N/A,,Clear,0,2012-11-10 23:15:00
4:35 PM,75.2,55.4,50,29.85,10.0,North,-9999.0,-,N/A,,Clear,0,2012-11-10 23:35:00
4:55 PM,75.2,55.4,50,29.85,10.0,North,-9999.0,-,N/A,,Clear,0,2012-11-10 23:55:00
5:15 PM,73.4,55.4,53,29.86,10.0,North,-9999.0,-,N/A,,Clear,0,2012-11-11 00:15:00
5:35 PM,73.4,57.2,57,29.86,10.0,North,-9999.0,-,N/A,,Clear,0,2012-11-11 00:35:00
5:55 PM,73.4,57.2,57,29.85,10.0,North,-9999.0,-,N/A,,Clear,0,2012-11-11 00:55:00
6:15 PM,73.4,59.0,61,29.86,10.0,North,-9999.0,-,N/A,,Scattered Clouds,0,2012-11-11 01:15:00
6:35 PM,71.6,59.0,64,29.87,10.0,North,-9999.0,-,N/A,,Mostly Cloudy,0,2012-11-11 01:35:00
6:55 PM,71.6,59.0,64,29.87,10.0,North,-9999.0,-,N/A,,Overcast,0,2012-11-11 01:55:00
7:15 PM,71.6,59.0,64,29.87,10.0,North,-9999.0,-,N/A,,Mostly Cloudy,0,2012-11-11 02:15:00
7:35 PM,71.6,59.0,64,29.87,10.0,North,-9999.0,-,N/A,,Mostly Cloudy,0,2012-11-11 02:35:00
7:55 PM,71.6,60.8,69,29.87,10.0,North,-9999.0,-,N/A,,Scattered Clouds,0,2012-11-11 02:55:00
8:15 PM,71.6,60.8,69,29.88,10.0,North,-9999.0,-,N/A,,Scattered Clouds,0,2012-11-11 03:15:00
8:35 PM,69.8,60.8,73,29.88,10.0,North,-9999.0,-,N/A,,Mostly Cloudy,0,2012-11-11 03:35:00
9:35 PM,71.6,60.8,69,29.87,10.0,North,-9999.0,-,N/A,,Overcast,0,2012-11-11 04:35:00
9:55 PM,71.6,60.8,69,29.88,10.0,North,-9999.0,-,N/A,,Overcast,0,2012-11-11 04:55:00
10:15 PM,71.6,60.8,69,29.88,10.0,North,-9999.0,-,N/A,,Overcast,0,2012-11-11 05:15:00
10:35 PM,71.6,60.8,69,29.86,10.0,North,-9999.0,-,N/A,,Overcast,0,2012-11-11 05:35:00
10:55 PM,71.6,60.8,69,29.86,10.0,North,-9999.0,-,N/A,,Overcast,0,2012-11-11 05:55:00
11:15 PM,71.6,60.8,69,29.85,10.0,North,-9999.0,-,N/A,,Overcast,0,2012-11-11 06:15:00
11:35 PM,71.6,60.8,69,29.84,10.0,North,-9999.0,-,N/A,,Overcast,0,2012-11-11 06:35:00
11:55 PM,71.6,60.8,69,29.84,10.0,North,-9999.0,-,N/A,,Mostly Cloudy,0,2012-11-11 06:55:00